Time;durP1;ratioP1;P1;durP2;ratioP2;P2;SDS_P1;SDS_P2;PMS_P1;PMS_P2;Temp;Humidity;BMP_temperature;BMP_pressure;BME280_temperature;BME280_humidity;BME280_pressure;Samples;Min_cycle;Max_cycle;Signal;HPM_P1;HPM_P2
2023/08/30 00:00:18;;;;;;;18.58;16.73;;;13.00;99.90;;;;;;5081030;28;20056;-84
2023/08/30 00:02:44;;;;;;;17.63;15.85;;;13.00;99.90;;;;;;5071011;28;20085;-84
2023/08/30 00:05:10;;;;;;;16.48;14.75;;;12.90;99.90;;;;;;5088765;28;20040;-84
2023/08/30 00:07:36;;;;;;;17.27;15.40;;;12.90;99.90;;;;;;5089058;28;20040;-84
2023/08/30 00:10:02;;;;;;;15.82;14.27;;;12.80;99.90;;;;;;5068582;28;20048;-84
2023/08/30 00:12:27;;;;;;;16.30;14.80;;;12.90;99.90;;;;;;5067457;28;20048;-84
2023/08/30 00:14:53;;;;;;;15.73;14.27;;;12.80;99.90;;;;;;5068372;28;20133;-84
2023/08/30 00:17:19;;;;;;;16.98;14.93;;;12.90;99.90;;;;;;5069119;28;20047;-85
2023/08/30 00:19:45;;;;;;;16.40;14.77;;;12.80;99.90;;;;;;5066792;28;20052;-84
2023/08/30 00:22:12;;;;;;;16.63;15.00;;;12.80;99.90;;;;;;5077694;28;20043;-84
2023/08/30 00:24:38;;;;;;;16.52;14.77;;;12.80;99.90;;;;;;5087727;28;20128;-85
2023/08/30 00:27:04;;;;;;;15.60;14.10;;;12.80;99.90;;;;;;5088632;28;20043;-85
2023/08/30 00:29:30;;;;;;;15.02;13.70;;;12.80;99.90;;;;;;5088954;28;20047;-84
2023/08/30 00:31:56;;;;;;;16.95;13.75;;;12.80;99.90;;;;;;5088614;28;20043;-84
2023/08/30 00:34:21;;;;;;;16.38;14.68;;;12.80;99.90;;;;;;5073033;28;20044;-84
2023/08/30 00:36:47;;;;;;;14.95;13.45;;;12.80;99.90;;;;;;5050621;28;20076;-85
2023/08/30 00:39:13;;;;;;;15.25;13.70;;;12.80;99.90;;;;;;5066367;28;20514;-84
2023/08/30 00:41:39;;;;;;;16.63;14.93;;;12.80;99.90;;;;;;5069672;28;20049;-85
2023/08/30 00:44:05;;;;;;;15.43;13.82;;;12.70;99.90;;;;;;5087121;28;20055;-84
2023/08/30 00:46:32;;;;;;;17.05;15.15;;;12.70;99.90;;;;;;5067089;28;20040;-84
2023/08/30 00:48:59;;;;;;;14.82;13.35;;;12.70;99.90;;;;;;5070953;28;20083;-84
2023/08/30 00:51:25;;;;;;;15.18;13.68;;;12.60;99.90;;;;;;5087906;28;20191;-84
2023/08/30 00:53:51;;;;;;;16.42;14.73;;;12.60;99.90;;;;;;5087694;28;20165;-84
2023/08/30 00:56:18;;;;;;;15.63;13.93;;;12.60;99.90;;;;;;5080658;28;20131;-84
2023/08/30 00:58:44;;;;;;;15.65;14.13;;;12.60;99.90;;;;;;5066735;28;20056;-84
2023/08/30 01:01:09;;;;;;;15.82;14.18;;;12.60;99.90;;;;;;5068244;28;20044;-83
2023/08/30 01:03:35;;;;;;;15.18;13.68;;;12.60;99.90;;;;;;5067374;28;20036;-83
2023/08/30 01:06:02;;;;;;;16.35;14.45;;;12.50;99.90;;;;;;5083589;28;20043;-84
2023/08/30 01:08:28;;;;;;;14.73;13.27;;;12.50;99.90;;;;;;5088056;28;20863;-84
2023/08/30 01:11:07;;;;;;;15.82;14.18;;;12.60;99.90;;;;;;5087042;28;20084;-83
2023/08/30 01:13:37;;;;;;;14.93;13.43;;;12.60;99.90;;;;;;5072724;28;20576;-83
2023/08/30 01:16:04;;;;;;;16.52;14.85;;;12.60;99.90;;;;;;5067750;28;20086;-84
2023/08/30 01:18:34;;;;;;;15.98;14.27;;;12.60;99.90;;;;;;5069025;28;20137;-83
2023/08/30 01:21:03;;;;;;;18.10;14.30;;;12.60;99.90;;;;;;5086444;28;20048;-83
2023/08/30 01:23:48;;;;;;;14.90;13.40;;;12.70;99.90;;;;;;5088286;28;20051;-83
2023/08/30 01:26:24;;;;;;;16.52;14.93;;;12.70;99.90;;;;;;5087843;28;20132;-84
2023/08/30 01:28:51;;;;;;;16.00;14.45;;;12.70;99.90;;;;;;5074512;28;20089;-84
2023/08/30 01:31:19;;;;;;;16.13;14.43;;;12.70;99.90;;;;;;5086485;28;20043;-84
2023/08/30 01:33:45;;;;;;;16.63;15.10;;;12.70;99.90;;;;;;5087385;28;20048;-84
2023/08/30 01:36:12;;;;;;;17.10;14.10;;;12.70;99.90;;;;;;5086286;28;20059;-83
2023/08/30 01:38:38;;;;;;;16.38;14.63;;;12.70;99.90;;;;;;5072672;28;20068;-84
2023/08/30 01:41:04;;;;;;;15.90;14.20;;;12.70;99.90;;;;;;5080004;28;20106;-83
2023/08/30 01:43:31;;;;;;;15.63;13.95;;;12.70;99.90;;;;;;5066357;28;20449;-83
2023/08/30 01:45:59;;;;;;;16.30;13.55;;;12.70;99.90;;;;;;5066747;28;20490;-84
2023/08/30 01:48:27;;;;;;;14.30;12.90;;;12.60;99.90;;;;;;5064558;28;20056;-83
2023/08/30 01:50:58;;;;;;;15.20;13.65;;;12.60;99.90;;;;;;5067458;28;20094;-84
2023/08/30 01:53:24;;;;;;;14.27;12.88;;;12.60;99.90;;;;;;5070608;28;20147;-83
2023/08/30 01:55:50;;;;;;;14.32;12.90;;;12.60;99.90;;;;;;5067399;28;20143;-84
2023/08/30 01:58:15;;;;;;;13.35;12.15;;;12.60;99.90;;;;;;5067426;28;20032;-83
2023/08/30 02:00:41;;;;;;;15.38;12.93;;;12.60;99.90;;;;;;5068601;28;20071;-84
2023/08/30 02:03:08;;;;;;;14.98;13.43;;;12.70;99.90;;;;;;5077637;28;20490;-84
2023/08/30 02:05:39;;;;;;;13.15;11.85;;;12.70;99.90;;;;;;5086104;28;20044;-83
2023/08/30 02:08:12;;;;;;;13.18;11.63;;;12.70;99.90;;;;;;5087039;28;20162;-83
2023/08/30 02:10:44;;;;;;;13.73;12.43;;;12.60;99.90;;;;;;5087849;28;20127;-83
2023/08/30 02:13:12;;;;;;;14.20;12.05;;;12.60;99.90;;;;;;5086044;28;20074;-83
2023/08/30 02:15:40;;;;;;;14.05;12.65;;;12.60;99.90;;;;;;5079721;28;20043;-84
2023/08/30 02:18:06;;;;;;;12.27;10.98;;;12.60;99.90;;;;;;5079659;28;20542;-84
2023/08/30 02:20:32;;;;;;;13.43;12.05;;;12.50;99.90;;;;;;5087637;28;20048;-84
2023/08/30 02:23:00;;;;;;;13.82;12.45;;;12.50;99.90;;;;;;5069089;28;20079;-84
2023/08/30 02:25:26;;;;;;;13.05;11.75;;;12.40;99.90;;;;;;5086933;28;20044;-84
2023/08/30 02:27:52;;;;;;;12.68;11.40;;;12.40;99.90;;;;;;5086408;28;20416;-84
2023/08/30 02:30:17;;;;;;;13.57;12.18;;;12.30;99.90;;;;;;5074652;28;20075;-84
2023/08/30 02:32:43;;;;;;;12.95;11.65;;;12.20;99.90;;;;;;5069923;28;20053;-84
2023/08/30 02:35:08;;;;;;;12.73;11.32;;;12.20;99.90;;;;;;5069094;28;20380;-84
2023/08/30 02:37:34;;;;;;;13.82;12.13;;;12.20;99.90;;;;;;5070893;28;20040;-83
2023/08/30 02:40:00;;;;;;;12.90;11.43;;;12.10;99.90;;;;;;5068390;28;20090;-84
2023/08/30 02:42:26;;;;;;;13.77;12.35;;;12.10;99.90;;;;;;5070718;28;20123;-83
2023/08/30 02:44:52;;;;;;;12.55;11.35;;;12.10;99.90;;;;;;5070494;28;20128;-83
2023/08/30 02:47:18;;;;;;;11.77;10.63;;;12.00;99.90;;;;;;5070450;28;20106;-84
2023/08/30 02:49:44;;;;;;;12.00;10.82;;;12.00;99.90;;;;;;5082605;28;20064;-83
2023/08/30 02:52:09;;;;;;;13.63;12.30;;;12.00;99.90;;;;;;5089258;28;20040;-83
2023/08/30 02:54:35;;;;;;;13.73;12.32;;;12.00;99.90;;;;;;5076153;28;20059;-83
2023/08/30 02:57:00;;;;;;;15.00;12.90;;;12.00;99.90;;;;;;5070311;28;20569;-84
2023/08/30 02:59:26;;;;;;;14.27;12.50;;;12.10;99.90;;;;;;5080200;28;20048;-83
2023/08/30 03:01:51;;;;;;;13.68;12.27;;;12.00;99.90;;;;;;5088861;28;20138;-84
2023/08/30 03:04:17;;;;;;;14.30;12.77;;;12.00;99.90;;;;;;5089403;28;20051;-84
2023/08/30 03:06:43;;;;;;;15.82;12.82;;;12.10;99.90;;;;;;5077680;28;20805;-84
2023/08/30 03:09:08;;;;;;;12.75;11.45;;;12.10;99.90;;;;;;5069794;28;20056;-83
2023/08/30 03:11:34;;;;;;;13.35;12.05;;;12.10;99.90;;;;;;5070119;28;20474;-84
2023/08/30 03:13:59;;;;;;;14.50;12.25;;;12.10;99.90;;;;;;5060654;28;20052;-83
2023/08/30 03:16:25;;;;;;;13.55;11.70;;;12.10;99.90;;;;;;5090212;28;20117;-84
2023/08/30 03:18:51;;;;;;;14.18;12.55;;;11.90;99.90;;;;;;5088420;28;20094;-83
2023/08/30 03:21:17;;;;;;;14.45;12.95;;;12.00;99.90;;;;;;5078666;28;20117;-84
2023/08/30 03:23:43;;;;;;;14.50;13.00;;;11.80;99.90;;;;;;5069611;28;20040;-84
2023/08/30 03:26:09;;;;;;;14.57;12.43;;;11.90;99.90;;;;;;5069701;28;20551;-84
2023/08/30 03:28:35;;;;;;;13.95;12.60;;;11.80;99.90;;;;;;5069641;28;20140;-84
2023/08/30 03:31:01;;;;;;;14.13;12.63;;;11.70;99.90;;;;;;5069739;28;20044;-83
2023/08/30 03:33:27;;;;;;;14.73;12.85;;;11.70;99.90;;;;;;5050801;28;20048;-83
2023/08/30 03:35:52;;;;;;;12.40;11.10;;;11.70;99.90;;;;;;5069470;28;20048;-84
2023/08/30 03:38:18;;;;;;;15.18;13.07;;;11.60;99.90;;;;;;5082277;28;20063;-83
2023/08/30 03:40:44;;;;;;;13.15;11.80;;;11.70;99.90;;;;;;5087583;28;20504;-83
2023/08/30 03:43:10;;;;;;;13.48;12.02;;;11.60;99.90;;;;;;5085992;28;20036;-84
2023/08/30 03:45:36;;;;;;;13.85;12.55;;;11.60;99.90;;;;;;5088051;28;20043;-84
2023/08/30 03:48:03;;;;;;;14.25;12.75;;;11.50;99.90;;;;;;5087206;28;20135;-84
2023/08/30 03:50:29;;;;;;;13.45;11.93;;;11.50;99.90;;;;;;5089276;28;20127;-83
2023/08/30 03:52:54;;;;;;;14.73;12.57;;;11.50;99.90;;;;;;5089169;28;20139;-87
2023/08/30 03:55:21;;;;;;;14.90;13.38;;;11.60;99.90;;;;;;5088767;28;20048;-83
2023/08/30 03:57:46;;;;;;;14.30;12.82;;;11.60;99.90;;;;;;5089073;28;20892;-83
2023/08/30 04:00:12;;;;;;;14.20;12.63;;;11.60;99.90;;;;;;5078166;28;20075;-83
2023/08/30 04:02:37;;;;;;;14.35;12.73;;;11.60;99.90;;;;;;5069204;28;20049;-83
2023/08/30 04:05:08;;;;;;;14.02;12.55;;;11.70;99.90;;;;;;5068439;28;20048;-83
2023/08/30 04:07:33;;;;;;;15.60;12.70;;;11.70;99.90;;;;;;5067588;28;20109;-83
2023/08/30 04:09:59;;;;;;;14.48;12.95;;;11.70;99.90;;;;;;5068625;28;20048;-84
2023/08/30 04:12:25;;;;;;;14.05;12.48;;;11.80;99.90;;;;;;5069011;28;20055;-83
2023/08/30 04:14:50;;;;;;;16.02;12.73;;;11.80;99.90;;;;;;5068746;28;20406;-83
2023/08/30 04:17:16;;;;;;;14.88;13.27;;;11.90;99.90;;;;;;5068348;28;20067;-83
2023/08/30 04:19:41;;;;;;;15.73;12.38;;;11.90;99.90;;;;;;5068634;28;20039;-83
2023/08/30 04:22:07;;;;;;;15.10;13.50;;;11.90;99.90;;;;;;5068106;28;20036;-84
2023/08/30 04:24:32;;;;;;;13.10;11.63;;;11.90;99.90;;;;;;5071262;28;20121;-83
2023/08/30 04:26:58;;;;;;;13.88;12.43;;;11.90;99.90;;;;;;5081427;28;20047;-84
2023/08/30 04:29:23;;;;;;;14.93;12.40;;;11.90;99.90;;;;;;5078667;28;20051;-84
2023/08/30 04:31:49;;;;;;;14.35;12.13;;;11.90;99.90;;;;;;5071317;28;20466;-84
2023/08/30 04:34:16;;;;;;;13.57;12.18;;;11.90;99.90;;;;;;5084273;28;20097;-84
2023/08/30 04:36:41;;;;;;;12.98;11.65;;;11.90;99.90;;;;;;5085190;28;20048;-84
2023/08/30 04:39:07;;;;;;;16.13;12.43;;;11.90;99.90;;;;;;5067994;28;20142;-84
2023/08/30 04:41:33;;;;;;;12.85;11.60;;;11.90;99.90;;;;;;5079467;28;20660;-84
2023/08/30 04:43:59;;;;;;;13.60;12.20;;;11.80;99.90;;;;;;5071784;28;20120;-84
2023/08/30 04:46:24;;;;;;;13.65;12.25;;;11.90;99.90;;;;;;5066114;28;20520;-84
2023/08/30 04:48:50;;;;;;;15.27;12.50;;;11.80;99.90;;;;;;5070553;28;20116;-84
2023/08/30 04:51:15;;;;;;;15.00;12.38;;;11.80;99.90;;;;;;5085561;28;20058;-83
2023/08/30 04:53:42;;;;;;;13.13;11.82;;;11.80;99.90;;;;;;5060481;28;20376;-83
2023/08/30 04:56:13;;;;;;;13.05;11.77;;;11.80;99.90;;;;;;5083791;28;20082;-83
2023/08/30 04:58:39;;;;;;;12.93;11.63;;;11.80;99.90;;;;;;5085634;28;20510;-84
2023/08/30 05:01:04;;;;;;;14.25;12.75;;;11.80;99.90;;;;;;5077150;28;20589;-85
2023/08/30 05:03:30;;;;;;;13.80;11.75;;;11.80;99.90;;;;;;5072968;28;20108;-84
2023/08/30 05:05:56;;;;;;;13.48;11.98;;;11.90;99.90;;;;;;5073206;28;20473;-85
2023/08/30 05:08:21;;;;;;;13.57;12.18;;;11.90;99.90;;;;;;5078965;28;20356;-84
2023/08/30 05:10:48;;;;;;;13.27;11.88;;;11.90;99.90;;;;;;5067613;28;20036;-84
2023/08/30 05:13:16;;;;;;;12.70;11.27;;;11.90;99.90;;;;;;5084028;28;20097;-84
2023/08/30 05:15:42;;;;;;;12.82;11.52;;;12.00;99.90;;;;;;5078392;28;20086;-84
2023/08/30 05:18:07;;;;;;;14.60;11.70;;;12.10;99.90;;;;;;5066079;28;20049;-84
2023/08/30 05:20:33;;;;;;;12.45;11.15;;;12.00;99.90;;;;;;5069085;28;20039;-85
2023/08/30 05:22:59;;;;;;;14.23;11.40;;;12.10;99.90;;;;;;5068467;28;20079;-84
2023/08/30 05:25:24;;;;;;;13.95;12.48;;;12.10;99.90;;;;;;5076351;28;20070;-85
2023/08/30 05:27:50;;;;;;;12.52;11.15;;;12.20;99.90;;;;;;5078822;28;20421;-84
2023/08/30 05:30:16;;;;;;;14.15;12.75;;;12.20;99.90;;;;;;5078854;28;20148;-83
2023/08/30 05:32:42;;;;;;;13.77;11.30;;;12.30;99.90;;;;;;5075132;28;20040;-84
2023/08/30 05:35:08;;;;;;;12.57;11.02;;;12.30;99.90;;;;;;5080196;28;20452;-83
2023/08/30 05:37:34;;;;;;;14.30;11.95;;;12.40;99.90;;;;;;5079736;28;20044;-85
2023/08/30 05:39:59;;;;;;;13.23;11.05;;;12.40;99.90;;;;;;5068280;28;20393;-84
2023/08/30 05:42:25;;;;;;;13.77;12.18;;;12.40;99.90;;;;;;5077237;28;20052;-84
2023/08/30 05:44:50;;;;;;;13.70;11.63;;;12.40;99.90;;;;;;5084113;28;20048;-84
2023/08/30 05:47:17;;;;;;;16.52;10.68;;;12.50;99.90;;;;;;5085161;28;20506;-83
2023/08/30 05:49:43;;;;;;;12.65;11.30;;;12.60;99.90;;;;;;5087459;28;20048;-84
2023/08/30 05:52:09;;;;;;;11.90;10.48;;;12.60;99.90;;;;;;5077117;28;20044;-83
2023/08/30 05:54:34;;;;;;;13.57;11.48;;;12.70;99.90;;;;;;5075580;28;20041;-82
2023/08/30 05:57:00;;;;;;;12.57;11.23;;;12.70;99.90;;;;;;5067488;28;20052;-84
2023/08/30 05:59:26;;;;;;;12.88;11.15;;;12.70;99.90;;;;;;5056221;28;20124;-84
2023/08/30 06:01:51;;;;;;;15.27;11.00;;;12.70;99.90;;;;;;5066737;28;20123;-83
2023/08/30 06:04:17;;;;;;;13.15;11.30;;;12.80;99.90;;;;;;5068483;28;20076;-83
2023/08/30 06:06:42;;;;;;;13.68;11.05;;;12.80;99.90;;;;;;5070164;28;20600;-83
2023/08/30 06:09:08;;;;;;;15.57;11.43;;;12.90;99.90;;;;;;5070372;28;20093;-82
2023/08/30 06:11:34;;;;;;;12.88;11.27;;;12.90;99.90;;;;;;5083138;28;20071;-83
2023/08/30 06:13:59;;;;;;;12.05;10.82;;;12.90;99.90;;;;;;5088871;28;20386;-82
2023/08/30 06:16:25;;;;;;;12.60;10.63;;;13.00;99.90;;;;;;5090569;28;20508;-83
2023/08/30 06:18:51;;;;;;;12.68;10.98;;;13.00;99.90;;;;;;5090658;28;20108;-83
2023/08/30 06:21:16;;;;;;;11.30;10.20;;;13.00;99.90;;;;;;5075965;28;20040;-84
2023/08/30 06:23:42;;;;;;;12.52;11.20;;;13.10;99.90;;;;;;5080972;28;20044;-83
2023/08/30 06:26:08;;;;;;;13.05;10.50;;;13.10;99.90;;;;;;5070674;28;20582;-82
2023/08/30 06:28:33;;;;;;;14.45;10.90;;;13.20;99.90;;;;;;5071207;28;20049;-82
2023/08/30 06:30:59;;;;;;;13.48;11.15;;;13.20;99.90;;;;;;5073976;28;20044;-83
2023/08/30 06:33:25;;;;;;;14.52;11.45;;;13.20;99.90;;;;;;5071210;28;20044;-83
2023/08/30 06:35:50;;;;;;;14.35;11.75;;;13.30;99.90;;;;;;5090295;28;20048;-83
2023/08/30 06:38:16;;;;;;;12.02;10.73;;;13.40;99.90;;;;;;5075942;28;20119;-82
2023/08/30 06:40:46;;;;;;;14.02;10.88;;;13.40;99.90;;;;;;5082721;28;20635;-82
2023/08/30 06:43:12;;;;;;;15.05;11.00;;;13.50;99.90;;;;;;5079631;28;20049;-83
2023/08/30 06:45:39;;;;;;;15.02;10.98;;;13.60;99.90;;;;;;5069685;28;20110;-83
2023/08/30 06:48:07;;;;;;;12.90;10.90;;;13.60;99.90;;;;;;5069923;28;20071;-83
2023/08/30 06:50:33;;;;;;;12.85;11.45;;;13.70;99.90;;;;;;5068460;28;20048;-81
2023/08/30 06:52:58;;;;;;;12.20;10.82;;;13.80;99.90;;;;;;5070271;28;20126;-82
2023/08/30 06:55:24;;;;;;;12.80;11.02;;;13.80;99.90;;;;;;5085373;28;20048;-83
2023/08/30 06:57:50;;;;;;;11.85;10.65;;;13.80;99.90;;;;;;5072215;28;20052;-82
2023/08/30 07:00:16;;;;;;;14.02;12.05;;;13.90;99.90;;;;;;5069607;28;20048;-82
2023/08/30 07:02:45;;;;;;;14.27;11.13;;;14.00;99.90;;;;;;5068448;28;20498;-83
2023/08/30 07:05:14;;;;;;;14.98;11.48;;;14.00;99.90;;;;;;5084278;28;20140;-82
2023/08/30 07:07:40;;;;;;;12.10;10.32;;;14.00;99.90;;;;;;5086747;28;20089;-82
2023/08/30 07:10:06;;;;;;;12.82;11.48;;;14.00;99.90;;;;;;5072418;28;20048;-82
2023/08/30 07:12:32;;;;;;;13.23;11.07;;;14.00;99.90;;;;;;5080498;28;20041;-82
2023/08/30 07:14:57;;;;;;;12.70;11.27;;;14.10;99.90;;;;;;5068387;28;21825;-83
2023/08/30 07:17:23;;;;;;;13.02;11.27;;;14.10;99.90;;;;;;5073890;28;20040;-83
2023/08/30 07:19:49;;;;;;;13.50;11.48;;;14.20;99.90;;;;;;5087708;28;20096;-83
2023/08/30 07:22:16;;;;;;;15.40;11.65;;;14.20;99.90;;;;;;5073574;28;20067;-82
2023/08/30 07:24:43;;;;;;;13.98;11.60;;;14.20;99.90;;;;;;5088616;28;20108;-82
2023/08/30 07:27:09;;;;;;;14.65;11.55;;;14.40;99.90;;;;;;5090251;28;20414;-83
2023/08/30 07:29:35;;;;;;;13.07;11.48;;;14.50;99.90;;;;;;5074316;28;20048;-83
2023/08/30 07:32:00;;;;;;;13.85;11.57;;;14.60;99.90;;;;;;5082953;28;20039;-83
2023/08/30 07:34:26;;;;;;;12.80;11.40;;;14.70;99.90;;;;;;5080084;28;20048;-82
2023/08/30 07:36:54;;;;;;;13.75;11.70;;;14.90;99.90;;;;;;5070755;28;20044;-82
2023/08/30 07:39:19;;;;;;;17.08;11.00;;;15.00;99.90;;;;;;5088259;28;20036;-82
2023/08/30 07:41:45;;;;;;;13.20;11.77;;;15.70;99.90;;;;;;5089489;28;20050;-82
2023/08/30 07:44:10;;;;;;;13.23;11.35;;;15.30;99.90;;;;;;5089126;28;20611;-83
2023/08/30 07:46:36;;;;;;;14.80;11.55;;;15.40;99.90;;;;;;5089511;28;20044;-83
2023/08/30 07:49:02;;;;;;;14.05;12.05;;;15.70;99.90;;;;;;5087557;28;20055;-83
2023/08/30 07:51:28;;;;;;;14.52;11.57;;;16.00;99.90;;;;;;5087993;28;20058;-83
2023/08/30 07:53:53;;;;;;;13.68;11.85;;;16.30;99.90;;;;;;5068834;28;20047;-83
2023/08/30 07:56:19;;;;;;;14.23;12.38;;;16.50;99.90;;;;;;5069356;28;20473;-82
2023/08/30 07:58:45;;;;;;;14.43;11.85;;;16.70;99.90;;;;;;5068543;28;20069;-82
2023/08/30 08:01:10;;;;;;;13.65;11.55;;;16.80;99.90;;;;;;5068796;28;20040;-83
2023/08/30 08:03:36;;;;;;;14.27;11.88;;;17.00;99.90;;;;;;5074528;28;20056;-84
2023/08/30 08:06:02;;;;;;;13.80;11.48;;;16.90;99.90;;;;;;5088897;28;20047;-83
2023/08/30 08:08:27;;;;;;;13.20;11.77;;;16.80;99.90;;;;;;5088058;28;20040;-83
2023/08/30 08:10:53;;;;;;;15.18;11.52;;;16.80;99.90;;;;;;5069203;28;20037;-83
2023/08/30 08:13:18;;;;;;;12.98;11.50;;;16.80;99.90;;;;;;5068644;28;20545;-81
2023/08/30 08:15:44;;;;;;;15.57;11.88;;;16.80;99.90;;;;;;5068757;28;20051;-82
2023/08/30 08:18:10;;;;;;;15.35;11.15;;;16.90;99.90;;;;;;5067860;28;20040;-82
2023/08/30 08:20:36;;;;;;;18.38;11.32;;;16.90;99.90;;;;;;5069411;28;20040;-80
2023/08/30 08:23:03;;;;;;;13.13;11.45;;;16.90;99.90;;;;;;5068257;28;20052;-80
2023/08/30 08:25:28;;;;;;;14.15;11.15;;;16.90;99.90;;;;;;5067107;28;20055;-82
2023/08/30 08:27:54;;;;;;;13.57;11.27;;;16.80;99.90;;;;;;5069272;28;20040;-81
2023/08/30 08:30:22;;;;;;;12.48;11.18;;;16.80;99.90;;;;;;5082648;28;20135;-81
2023/08/30 08:32:48;;;;;;;13.30;11.43;;;16.80;99.90;;;;;;5085598;28;20520;-81
2023/08/30 08:35:14;;;;;;;12.20;10.70;;;16.70;99.90;;;;;;5072264;28;20123;-81
2023/08/30 08:37:40;;;;;;;12.43;10.45;;;16.70;99.90;;;;;;5082701;28;20047;-81
2023/08/30 08:40:08;;;;;;;13.45;10.68;;;16.70;99.90;;;;;;5081399;28;20096;-81
2023/08/30 08:42:35;;;;;;;11.38;10.18;;;16.70;99.90;;;;;;5076953;28;20089;-80
2023/08/30 08:45:02;;;;;;;11.75;10.35;;;16.80;99.90;;;;;;5082439;28;20036;-81
2023/08/30 08:47:30;;;;;;;13.05;10.40;;;16.80;99.90;;;;;;5080144;28;20067;-81
2023/08/30 08:49:57;;;;;;;11.77;9.68;;;16.80;99.90;;;;;;5086654;28;20517;-82
2023/08/30 08:52:24;;;;;;;14.88;10.90;;;16.80;99.90;;;;;;5074026;28;20048;-81
2023/08/30 08:54:50;;;;;;;11.60;10.30;;;16.80;99.90;;;;;;5079047;28;20123;-81
2023/08/30 08:57:17;;;;;;;11.82;10.07;;;16.80;99.90;;;;;;5056925;28;20415;-81
2023/08/30 08:59:43;;;;;;;11.57;10.38;;;16.70;99.90;;;;;;5080452;28;20119;-81
2023/08/30 09:02:12;;;;;;;12.60;9.57;;;16.60;99.90;;;;;;5085601;28;20055;-83
2023/08/30 09:04:39;;;;;;;13.80;10.40;;;16.60;99.90;;;;;;5073838;28;20036;-82
2023/08/30 09:07:05;;;;;;;11.02;9.93;;;16.40;99.90;;;;;;5084105;28;20055;-84
2023/08/30 09:09:30;;;;;;;12.82;10.40;;;16.40;99.90;;;;;;5087762;28;20114;-82
2023/08/30 09:11:56;;;;;;;13.82;9.90;;;16.40;99.90;;;;;;5087224;28;20047;-82
2023/08/30 09:14:22;;;;;;;13.23;10.73;;;16.40;99.90;;;;;;5086246;28;20410;-81
2023/08/30 09:17:01;;;;;;;11.63;10.43;;;16.30;99.90;;;;;;5088109;28;20087;-82
2023/08/30 09:19:27;;;;;;;11.32;10.13;;;16.30;99.90;;;;;;5087956;28;20078;-82
2023/08/30 09:21:54;;;;;;;12.43;10.35;;;16.30;99.90;;;;;;5085857;28;20071;-82
2023/08/30 09:24:20;;;;;;;12.20;10.32;;;16.20;99.90;;;;;;5067089;28;20197;-82
2023/08/30 09:26:51;;;;;;;12.05;10.20;;;16.20;99.90;;;;;;5066904;28;20055;-82
2023/08/30 09:29:18;;;;;;;12.48;10.30;;;16.10;99.90;;;;;;5070870;28;20076;-82
2023/08/30 09:31:44;;;;;;;10.82;9.70;;;16.00;99.90;;;;;;5087178;28;20050;-82
2023/08/30 09:34:11;;;;;;;13.95;10.48;;;15.90;99.90;;;;;;5081429;28;20053;-82
2023/08/30 09:36:40;;;;;;;12.18;10.10;;;15.80;99.90;;;;;;5067925;28;20052;-82
2023/08/30 09:39:14;;;;;;;12.88;11.13;;;15.80;99.90;;;;;;5078263;28;20036;-82
2023/08/30 09:41:50;;;;;;;13.93;11.02;;;15.70;99.90;;;;;;5091340;28;20373;-82
2023/08/30 09:44:20;;;;;;;15.30;11.57;;;15.70;99.90;;;;;;5091732;28;20571;-82
2023/08/30 09:46:50;;;;;;;15.05;11.35;;;15.70;99.90;;;;;;5090540;28;20083;-82
2023/08/30 09:49:23;;;;;;;13.68;11.38;;;15.70;99.90;;;;;;5074325;28;20187;-82
2023/08/30 09:51:49;;;;;;;;;;;15.60;99.90;;;;;;5070790;28;20067;-82
2023/08/30 09:54:18;;;;;;;13.27;10.70;;;15.60;99.90;;;;;;5074384;28;20022;-81
2023/08/30 09:56:45;;;;;;;14.20;11.20;;;15.60;99.90;;;;;;5077366;28;20087;-81
2023/08/30 09:59:12;;;;;;;14.57;12.63;;;15.60;99.90;;;;;;5072712;28;20047;-82
2023/08/30 10:01:39;;;;;;;12.80;11.45;;;15.70;99.90;;;;;;5071121;28;20062;-81
2023/08/30 10:04:08;;;;;;;14.75;11.45;;;16.00;99.90;;;;;;5077807;28;20071;-82
2023/08/30 10:06:36;;;;;;;13.95;12.50;;;15.70;99.90;;;;;;5071455;28;20110;-82
2023/08/30 10:09:04;;;;;;;13.65;12.25;;;15.60;99.90;;;;;;5072976;28;20668;-83
2023/08/30 10:11:33;;;;;;;13.65;12.15;;;15.80;99.90;;;;;;5089554;28;20040;-84
2023/08/30 10:13:59;;;;;;;15.18;12.40;;;16.00;99.90;;;;;;5091311;28;20119;-83
2023/08/30 10:16:27;;;;;;;12.50;11.18;;;16.10;99.90;;;;;;5089784;28;20124;-83
2023/08/30 10:19:02;;;;;;;11.85;10.65;;;16.10;99.90;;;;;;5086963;28;20420;-82
2023/08/30 10:21:29;;;;;;;12.02;10.75;;;16.30;99.90;;;;;;5089249;28;20047;-81
2023/08/30 10:23:56;;;;;;;15.30;11.02;;;16.30;99.90;;;;;;5071297;28;20212;-81
2023/08/30 10:26:24;;;;;;;12.48;10.35;;;16.60;99.90;;;;;;5080492;28;20501;-81
2023/08/30 10:28:53;;;;;;;11.60;10.40;;;16.40;99.90;;;;;;5075100;28;20672;-80
2023/08/30 10:31:18;;;;;;;12.20;11.00;;;16.50;99.90;;;;;;5084339;28;20043;-81
2023/08/30 10:33:53;;;;;;;12.75;11.40;;;16.60;99.90;;;;;;5079340;28;20048;-81
2023/08/30 10:36:26;;;;;;;12.23;10.75;;;16.70;99.90;;;;;;5070740;28;20548;-80
2023/08/30 10:38:55;;;;;;;12.10;10.45;;;16.80;99.90;;;;;;5090507;28;20052;-80
2023/08/30 10:41:23;;;;;;;10.05;8.88;;;16.80;99.90;;;;;;5077433;28;20106;-80
2023/08/30 10:43:51;;;;;;;8.40;7.60;;;16.80;99.90;;;;;;5069960;28;20049;-80
2023/08/30 10:46:17;;;;;;;8.38;7.15;;;17.10;99.90;;;;;;5071482;28;20048;-80
2023/08/30 10:48:43;;;;;;;7.70;6.93;;;16.60;99.90;;;;;;5069405;28;20410;-80
2023/08/30 10:51:34;;;;;;;7.93;7.15;;;16.50;99.90;;;;;;5077197;28;20078;-81
2023/08/30 10:53:59;;;;;;;9.27;7.15;;;16.40;99.90;;;;;;5088898;28;20332;-81
2023/08/30 10:56:29;;;;;;;7.88;6.82;;;16.30;99.90;;;;;;5105394;28;20062;-80
2023/08/30 10:58:57;;;;;;;8.15;7.10;;;16.10;99.90;;;;;;5079905;28;20052;-82
2023/08/30 11:01:23;;;;;;;7.43;6.72;;;16.20;99.90;;;;;;5068042;28;20498;-82
2023/08/30 11:03:50;;;;;;;8.25;7.45;;;16.10;99.90;;;;;;5067097;28;20092;-81
2023/08/30 11:06:17;;;;;;;8.07;7.20;;;16.00;99.90;;;;;;5068272;28;20075;-81
2023/08/30 11:08:43;;;;;;;7.72;7.03;;;15.90;99.90;;;;;;5068686;28;20045;-82
2023/08/30 11:11:11;;;;;;;9.02;7.30;;;15.90;99.90;;;;;;5072090;28;20800;-81
2023/08/30 11:13:37;;;;;;;9.25;7.65;;;15.80;99.90;;;;;;5079485;28;20036;-81
2023/08/30 11:16:04;;;;;;;7.88;6.95;;;15.90;99.90;;;;;;5068582;28;20551;-81
2023/08/30 11:18:39;;;;;;;8.40;7.45;;;15.70;99.90;;;;;;5075747;28;20044;-82
2023/08/30 11:21:06;;;;;;;8.30;7.35;;;15.70;99.90;;;;;;5078190;28;20086;-82
2023/08/30 11:23:32;;;;;;;9.70;7.60;;;15.70;99.90;;;;;;5089426;28;20071;-83
2023/08/30 11:25:58;;;;;;;10.68;8.38;;;15.60;99.90;;;;;;5077272;28;20044;-82
2023/08/30 11:28:24;;;;;;;8.65;7.85;;;15.70;99.90;;;;;;5085966;28;20033;-82
2023/08/30 11:30:53;;;;;;;9.18;8.27;;;15.70;99.90;;;;;;5069829;28;20071;-81
2023/08/30 11:33:19;;;;;;;9.57;8.57;;;15.70;99.90;;;;;;5077769;28;20066;-82
2023/08/30 11:35:45;;;;;;;10.30;8.75;;;15.70;99.90;;;;;;5082186;28;20059;-83
2023/08/30 11:38:13;;;;;;;8.82;8.00;;;15.70;99.90;;;;;;5079031;28;20394;-83
2023/08/30 11:40:38;;;;;;;9.75;8.07;;;15.70;99.90;;;;;;5074696;28;20105;-82
2023/08/30 11:43:04;;;;;;;10.13;8.80;;;15.70;99.90;;;;;;5088625;28;20684;-83
2023/08/30 11:45:36;;;;;;;9.48;8.35;;;15.70;99.90;;;;;;5089217;28;20040;-83
2023/08/30 11:48:02;;;;;;;10.90;9.37;;;15.70;99.90;;;;;;5049840;28;1058024;-83
2023/08/30 11:50:29;;;;;;;10.57;9.45;;;15.70;99.90;;;;;;5085547;28;20044;-82
2023/08/30 11:52:55;;;;;;;9.60;8.73;;;15.60;99.90;;;;;;5086063;28;20054;-82
2023/08/30 11:55:21;;;;;;;10.05;9.02;;;15.60;99.90;;;;;;5087862;28;20047;-83
2023/08/30 11:57:50;;;;;;;8.32;7.53;;;15.60;99.90;;;;;;5069662;28;20078;-83
2023/08/30 12:00:19;;;;;;;8.18;7.30;;;15.50;99.90;;;;;;5069320;28;20044;-82
2023/08/30 12:02:46;;;;;;;8.23;7.43;;;15.50;99.90;;;;;;5087323;28;20500;-82
2023/08/30 12:05:15;;;;;;;8.10;6.80;;;15.50;99.90;;;;;;5087455;28;20056;-82
2023/08/30 12:07:41;;;;;;;8.05;7.22;;;15.60;99.90;;;;;;5070862;28;20052;-82
2023/08/30 12:10:08;;;;;;;7.53;6.82;;;15.60;99.90;;;;;;5089289;28;20047;-82
2023/08/30 12:12:36;;;;;;;8.00;7.20;;;15.60;99.90;;;;;;5088931;28;20505;-82
2023/08/30 12:15:07;;;;;;;7.40;6.70;;;15.60;99.90;;;;;;5088559;28;20090;-82
2023/08/30 12:17:35;;;;;;;7.03;6.35;;;15.60;99.90;;;;;;5086881;28;20059;-83
2023/08/30 12:20:00;;;;;;;7.45;6.38;;;15.70;99.90;;;;;;5087098;28;20051;-82
2023/08/30 12:22:39;;;;;;;7.03;6.43;;;15.70;99.90;;;;;;5088924;28;20132;-82
2023/08/30 12:25:19;;;;;;;6.57;5.97;;;15.80;99.90;;;;;;5087799;28;20079;-82
2023/08/30 12:27:45;;;;;;;7.07;6.00;;;15.80;99.90;;;;;;5089165;28;20052;-82